sensor_id;sensor_type;location;lat;lon;timestamp;temperature;humidity
7331;DHT22;3706;49.198;7.064;2022-09-24T00:01:07;7.80;99.90
7331;DHT22;3706;49.198;7.064;2022-09-24T00:03:34;7.70;99.90
7331;DHT22;3706;49.198;7.064;2022-09-24T00:06:02;7.70;99.90
7331;DHT22;3706;49.198;7.064;2022-09-24T00:08:29;7.60;99.90
7331;DHT22;3706;49.198;7.064;2022-09-24T00:11:00;7.60;99.90
7331;DHT22;3706;49.198;7.064;2022-09-24T00:13:27;7.50;99.90
7331;DHT22;3706;49.198;7.064;2022-09-24T00:15:55;7.40;99.90
7331;DHT22;3706;49.198;7.064;2022-09-24T00:18:22;7.40;99.90
7331;DHT22;3706;49.198;7.064;2022-09-24T00:20:49;7.30;99.90
7331;DHT22;3706;49.198;7.064;2022-09-24T00:23:16;7.40;99.90
7331;DHT22;3706;49.198;7.064;2022-09-24T00:25:44;7.30;99.90
7331;DHT22;3706;49.198;7.064;2022-09-24T00:28:31;7.30;99.90
7331;DHT22;3706;49.198;7.064;2022-09-24T00:31:03;7.30;99.90
7331;DHT22;3706;49.198;7.064;2022-09-24T00:33:32;7.20;99.90
7331;DHT22;3706;49.198;7.064;2022-09-24T00:36:01;7.10;99.90
7331;DHT22;3706;49.198;7.064;2022-09-24T00:38:29;7.10;99.90
7331;DHT22;3706;49.198;7.064;2022-09-24T00:40:56;7.00;99.90
7331;DHT22;3706;49.198;7.064;2022-09-24T00:43:25;7.20;99.90
7331;DHT22;3706;49.198;7.064;2022-09-24T00:45:55;7.10;99.90
7331;DHT22;3706;49.198;7.064;2022-09-24T00:48:24;7.10;99.90
7331;DHT22;3706;49.198;7.064;2022-09-24T00:50:51;7.10;99.90
7331;DHT22;3706;49.198;7.064;2022-09-24T00:53:20;7.10;99.90
7331;DHT22;3706;49.198;7.064;2022-09-24T00:55:50;7.10;99.90
7331;DHT22;3706;49.198;7.064;2022-09-24T00:58:19;7.00;99.90
7331;DHT22;3706;49.198;7.064;2022-09-24T01:00:49;6.90;99.90
7331;DHT22;3706;49.198;7.064;2022-09-24T01:03:22;6.90;99.90
7331;DHT22;3706;49.198;7.064;2022-09-24T01:05:51;7.00;99.90
7331;DHT22;3706;49.198;7.064;2022-09-24T01:08:18;6.80;99.90
7331;DHT22;3706;49.198;7.064;2022-09-24T01:10:57;6.80;99.90
7331;DHT22;3706;49.198;7.064;2022-09-24T01:13:39;6.80;99.90
7331;DHT22;3706;49.198;7.064;2022-09-24T01:16:13;6.80;99.90
7331;DHT22;3706;49.198;7.064;2022-09-24T01:18:45;6.60;99.90
7331;DHT22;3706;49.198;7.064;2022-09-24T01:21:29;6.50;99.90
7331;DHT22;3706;49.198;7.064;2022-09-24T01:24:15;6.40;99.90
7331;DHT22;3706;49.198;7.064;2022-09-24T01:26:56;6.30;99.90
7331;DHT22;3706;49.198;7.064;2022-09-24T01:29:50;6.30;99.90
7331;DHT22;3706;49.198;7.064;2022-09-24T01:32:22;6.30;99.90
7331;DHT22;3706;49.198;7.064;2022-09-24T01:34:56;6.20;99.90
7331;DHT22;3706;49.198;7.064;2022-09-24T01:37:26;6.30;99.90
7331;DHT22;3706;49.198;7.064;2022-09-24T01:39:55;6.20;99.90
7331;DHT22;3706;49.198;7.064;2022-09-24T01:42:25;6.20;99.90
7331;DHT22;3706;49.198;7.064;2022-09-24T01:44:54;6.20;99.90
7331;DHT22;3706;49.198;7.064;2022-09-24T01:47:28;6.10;99.90
7331;DHT22;3706;49.198;7.064;2022-09-24T01:49:56;6.10;99.90
7331;DHT22;3706;49.198;7.064;2022-09-24T01:52:27;6.00;99.90
7331;DHT22;3706;49.198;7.064;2022-09-24T01:54:56;6.10;99.90
7331;DHT22;3706;49.198;7.064;2022-09-24T01:57:26;6.10;99.90
7331;DHT22;3706;49.198;7.064;2022-09-24T01:59:58;6.00;99.90
7331;DHT22;3706;49.198;7.064;2022-09-24T02:02:31;6.00;99.90
7331;DHT22;3706;49.198;7.064;2022-09-24T02:05:04;6.00;99.90
7331;DHT22;3706;49.198;7.064;2022-09-24T02:07:35;6.20;99.90
7331;DHT22;3706;49.198;7.064;2022-09-24T02:10:05;6.20;99.90
7331;DHT22;3706;49.198;7.064;2022-09-24T02:12:39;6.30;99.90
7331;DHT22;3706;49.198;7.064;2022-09-24T02:15:12;6.30;99.90
7331;DHT22;3706;49.198;7.064;2022-09-24T02:17:45;6.30;99.90
7331;DHT22;3706;49.198;7.064;2022-09-24T02:20:14;6.30;99.90
7331;DHT22;3706;49.198;7.064;2022-09-24T02:22:43;6.30;99.90
7331;DHT22;3706;49.198;7.064;2022-09-24T02:25:15;6.40;99.90
7331;DHT22;3706;49.198;7.064;2022-09-24T02:27:43;6.30;99.90
7331;DHT22;3706;49.198;7.064;2022-09-24T02:30:12;6.40;99.90
7331;DHT22;3706;49.198;7.064;2022-09-24T02:32:40;6.50;99.90
7331;DHT22;3706;49.198;7.064;2022-09-24T02:35:10;6.60;99.90
7331;DHT22;3706;49.198;7.064;2022-09-24T02:37:37;6.60;99.90
7331;DHT22;3706;49.198;7.064;2022-09-24T02:40:07;6.70;99.90
7331;DHT22;3706;49.198;7.064;2022-09-24T02:42:35;6.80;99.90
7331;DHT22;3706;49.198;7.064;2022-09-24T02:45:02;6.90;99.90
7331;DHT22;3706;49.198;7.064;2022-09-24T02:47:31;6.70;99.90
7331;DHT22;3706;49.198;7.064;2022-09-24T02:49:58;6.70;99.90
7331;DHT22;3706;49.198;7.064;2022-09-24T02:52:25;6.70;99.90
7331;DHT22;3706;49.198;7.064;2022-09-24T02:54:52;6.80;99.90
7331;DHT22;3706;49.198;7.064;2022-09-24T02:57:19;6.80;99.90
7331;DHT22;3706;49.198;7.064;2022-09-24T02:59:46;6.70;99.90
7331;DHT22;3706;49.198;7.064;2022-09-24T03:02:13;6.80;99.90
7331;DHT22;3706;49.198;7.064;2022-09-24T03:04:41;6.80;99.90
7331;DHT22;3706;49.198;7.064;2022-09-24T03:07:08;6.80;99.90
7331;DHT22;3706;49.198;7.064;2022-09-24T03:09:36;6.90;99.90
7331;DHT22;3706;49.198;7.064;2022-09-24T03:12:03;6.90;99.90
7331;DHT22;3706;49.198;7.064;2022-09-24T03:14:29;6.90;99.90
7331;DHT22;3706;49.198;7.064;2022-09-24T03:16:56;6.90;99.90
7331;DHT22;3706;49.198;7.064;2022-09-24T03:19:23;6.90;99.90
7331;DHT22;3706;49.198;7.064;2022-09-24T03:21:51;7.00;99.90
7331;DHT22;3706;49.198;7.064;2022-09-24T03:24:18;7.20;99.90
7331;DHT22;3706;49.198;7.064;2022-09-24T03:26:45;7.10;99.90
7331;DHT22;3706;49.198;7.064;2022-09-24T03:29:12;7.00;99.90
7331;DHT22;3706;49.198;7.064;2022-09-24T03:31:39;7.00;99.90
7331;DHT22;3706;49.198;7.064;2022-09-24T03:34:05;7.00;99.90
7331;DHT22;3706;49.198;7.064;2022-09-24T03:36:32;7.00;99.90
7331;DHT22;3706;49.198;7.064;2022-09-24T03:39:00;7.10;99.90
7331;DHT22;3706;49.198;7.064;2022-09-24T03:41:27;7.10;99.90
7331;DHT22;3706;49.198;7.064;2022-09-24T03:43:54;7.20;99.90
7331;DHT22;3706;49.198;7.064;2022-09-24T03:46:21;7.30;99.90
7331;DHT22;3706;49.198;7.064;2022-09-24T03:48:54;7.30;99.90
7331;DHT22;3706;49.198;7.064;2022-09-24T03:51:22;7.30;99.90
7331;DHT22;3706;49.198;7.064;2022-09-24T03:53:49;7.30;99.90
7331;DHT22;3706;49.198;7.064;2022-09-24T03:56:17;7.40;99.90
7331;DHT22;3706;49.198;7.064;2022-09-24T03:58:44;7.40;99.90
7331;DHT22;3706;49.198;7.064;2022-09-24T04:01:12;7.60;99.90
7331;DHT22;3706;49.198;7.064;2022-09-24T04:03:39;7.80;99.90
7331;DHT22;3706;49.198;7.064;2022-09-24T04:06:06;7.90;99.90
7331;DHT22;3706;49.198;7.064;2022-09-24T04:08:33;8.00;99.90
7331;DHT22;3706;49.198;7.064;2022-09-24T04:11:00;8.10;99.90
7331;DHT22;3706;49.198;7.064;2022-09-24T04:13:28;7.90;99.90
7331;DHT22;3706;49.198;7.064;2022-09-24T04:15:55;7.80;99.90
7331;DHT22;3706;49.198;7.064;2022-09-24T04:18:27;7.60;99.90
7331;DHT22;3706;49.198;7.064;2022-09-24T04:20:57;7.60;99.90
7331;DHT22;3706;49.198;7.064;2022-09-24T04:23:24;7.40;99.90
7331;DHT22;3706;49.198;7.064;2022-09-24T04:25:51;7.40;99.90
7331;DHT22;3706;49.198;7.064;2022-09-24T04:28:18;7.30;99.90
7331;DHT22;3706;49.198;7.064;2022-09-24T04:30:47;7.40;99.90
7331;DHT22;3706;49.198;7.064;2022-09-24T04:33:14;7.50;99.90
7331;DHT22;3706;49.198;7.064;2022-09-24T04:35:41;7.50;99.90
7331;DHT22;3706;49.198;7.064;2022-09-24T04:38:08;7.40;99.90
7331;DHT22;3706;49.198;7.064;2022-09-24T04:40:35;7.50;99.90
7331;DHT22;3706;49.198;7.064;2022-09-24T04:43:02;7.40;99.90
7331;DHT22;3706;49.198;7.064;2022-09-24T04:45:30;7.50;99.90
7331;DHT22;3706;49.198;7.064;2022-09-24T04:47:59;7.60;99.90
7331;DHT22;3706;49.198;7.064;2022-09-24T04:50:28;7.50;99.90
7331;DHT22;3706;49.198;7.064;2022-09-24T04:52:58;7.60;99.90
7331;DHT22;3706;49.198;7.064;2022-09-24T04:55:25;7.80;99.90
7331;DHT22;3706;49.198;7.064;2022-09-24T04:57:55;8.00;99.90
7331;DHT22;3706;49.198;7.064;2022-09-24T05:00:23;8.10;99.90
7331;DHT22;3706;49.198;7.064;2022-09-24T05:02:55;8.20;99.90
7331;DHT22;3706;49.198;7.064;2022-09-24T05:05:24;8.10;99.90
7331;DHT22;3706;49.198;7.064;2022-09-24T05:07:51;8.10;99.90
7331;DHT22;3706;49.198;7.064;2022-09-24T05:10:21;8.10;99.90
7331;DHT22;3706;49.198;7.064;2022-09-24T05:12:48;8.00;99.90
7331;DHT22;3706;49.198;7.064;2022-09-24T05:15:15;7.90;99.90
7331;DHT22;3706;49.198;7.064;2022-09-24T05:17:44;7.90;99.90
7331;DHT22;3706;49.198;7.064;2022-09-24T05:20:11;8.10;99.90
7331;DHT22;3706;49.198;7.064;2022-09-24T05:22:42;8.10;99.90
7331;DHT22;3706;49.198;7.064;2022-09-24T05:25:10;8.10;99.90
7331;DHT22;3706;49.198;7.064;2022-09-24T05:27:42;8.10;99.90
7331;DHT22;3706;49.198;7.064;2022-09-24T05:30:09;8.10;99.90
7331;DHT22;3706;49.198;7.064;2022-09-24T05:32:36;8.10;99.90
7331;DHT22;3706;49.198;7.064;2022-09-24T05:35:03;8.10;99.90
7331;DHT22;3706;49.198;7.064;2022-09-24T05:37:32;8.00;99.90
7331;DHT22;3706;49.198;7.064;2022-09-24T05:40:01;8.00;99.90
7331;DHT22;3706;49.198;7.064;2022-09-24T05:42:48;7.90;99.90
7331;DHT22;3706;49.198;7.064;2022-09-24T05:45:15;8.00;99.90
7331;DHT22;3706;49.198;7.064;2022-09-24T05:47:43;8.00;99.90
7331;DHT22;3706;49.198;7.064;2022-09-24T05:50:10;8.20;99.90
7331;DHT22;3706;49.198;7.064;2022-09-24T05:52:38;8.20;99.90
7331;DHT22;3706;49.198;7.064;2022-09-24T05:55:08;8.30;99.90
7331;DHT22;3706;49.198;7.064;2022-09-24T05:57:36;8.50;99.90
7331;DHT22;3706;49.198;7.064;2022-09-24T06:00:04;8.70;99.90
7331;DHT22;3706;49.198;7.064;2022-09-24T06:02:31;8.80;99.90
7331;DHT22;3706;49.198;7.064;2022-09-24T06:04:58;8.90;99.90
7331;DHT22;3706;49.198;7.064;2022-09-24T06:07:24;9.00;99.90
7331;DHT22;3706;49.198;7.064;2022-09-24T06:09:51;9.10;99.90
7331;DHT22;3706;49.198;7.064;2022-09-24T06:12:21;9.20;99.90
7331;DHT22;3706;49.198;7.064;2022-09-24T06:14:48;9.20;99.90
7331;DHT22;3706;49.198;7.064;2022-09-24T06:17:14;9.20;99.90
7331;DHT22;3706;49.198;7.064;2022-09-24T06:19:41;9.20;99.90
7331;DHT22;3706;49.198;7.064;2022-09-24T06:22:08;9.10;99.90
7331;DHT22;3706;49.198;7.064;2022-09-24T06:24:35;9.20;99.90
7331;DHT22;3706;49.198;7.064;2022-09-24T06:27:02;9.30;99.90
7331;DHT22;3706;49.198;7.064;2022-09-24T06:29:30;9.50;99.90
7331;DHT22;3706;49.198;7.064;2022-09-24T06:31:57;9.70;99.90
7331;DHT22;3706;49.198;7.064;2022-09-24T06:34:26;9.80;99.90
7331;DHT22;3706;49.198;7.064;2022-09-24T06:36:53;9.90;99.90
7331;DHT22;3706;49.198;7.064;2022-09-24T06:39:22;9.90;99.90
7331;DHT22;3706;49.198;7.064;2022-09-24T06:41:50;9.90;99.90
7331;DHT22;3706;49.198;7.064;2022-09-24T06:44:17;10.00;99.90
7331;DHT22;3706;49.198;7.064;2022-09-24T06:46:46;10.10;99.90
7331;DHT22;3706;49.198;7.064;2022-09-24T06:49:13;10.20;99.90
7331;DHT22;3706;49.198;7.064;2022-09-24T06:51:39;10.40;99.90
7331;DHT22;3706;49.198;7.064;2022-09-24T06:54:07;10.60;99.90
7331;DHT22;3706;49.198;7.064;2022-09-24T06:56:34;10.80;99.90
7331;DHT22;3706;49.198;7.064;2022-09-24T06:59:00;10.90;99.90
7331;DHT22;3706;49.198;7.064;2022-09-24T07:01:27;11.00;99.90
7331;DHT22;3706;49.198;7.064;2022-09-24T07:03:55;11.10;99.90
7331;DHT22;3706;49.198;7.064;2022-09-24T07:06:22;11.20;99.90
7331;DHT22;3706;49.198;7.064;2022-09-24T07:08:50;11.30;99.90
7331;DHT22;3706;49.198;7.064;2022-09-24T07:11:17;11.40;99.90
7331;DHT22;3706;49.198;7.064;2022-09-24T07:13:44;11.50;99.90
7331;DHT22;3706;49.198;7.064;2022-09-24T07:16:10;11.60;99.90
7331;DHT22;3706;49.198;7.064;2022-09-24T07:18:37;11.60;99.90
7331;DHT22;3706;49.198;7.064;2022-09-24T07:21:06;11.60;99.90
7331;DHT22;3706;49.198;7.064;2022-09-24T07:23:33;11.70;99.90
7331;DHT22;3706;49.198;7.064;2022-09-24T07:25:59;11.80;99.90
7331;DHT22;3706;49.198;7.064;2022-09-24T07:28:26;11.80;99.90
7331;DHT22;3706;49.198;7.064;2022-09-24T07:30:57;11.90;99.90
7331;DHT22;3706;49.198;7.064;2022-09-24T07:33:24;12.00;99.90
7331;DHT22;3706;49.198;7.064;2022-09-24T07:35:51;12.10;99.90
7331;DHT22;3706;49.198;7.064;2022-09-24T07:38:19;12.20;99.90
7331;DHT22;3706;49.198;7.064;2022-09-24T07:40:46;12.30;99.90
7331;DHT22;3706;49.198;7.064;2022-09-24T07:43:13;12.50;99.90
7331;DHT22;3706;49.198;7.064;2022-09-24T07:45:41;12.60;99.90
7331;DHT22;3706;49.198;7.064;2022-09-24T07:48:09;12.70;99.90
7331;DHT22;3706;49.198;7.064;2022-09-24T07:50:38;13.00;99.90
7331;DHT22;3706;49.198;7.064;2022-09-24T07:53:05;13.20;99.90
7331;DHT22;3706;49.198;7.064;2022-09-24T07:55:34;13.40;99.90
7331;DHT22;3706;49.198;7.064;2022-09-24T07:58:06;13.60;99.90
7331;DHT22;3706;49.198;7.064;2022-09-24T08:00:34;13.70;99.90
7331;DHT22;3706;49.198;7.064;2022-09-24T08:03:02;13.80;99.90
7331;DHT22;3706;49.198;7.064;2022-09-24T08:05:30;13.80;99.90
7331;DHT22;3706;49.198;7.064;2022-09-24T08:07:57;14.00;99.90
7331;DHT22;3706;49.198;7.064;2022-09-24T08:10:26;14.10;99.90
7331;DHT22;3706;49.198;7.064;2022-09-24T08:12:54;14.30;99.90
7331;DHT22;3706;49.198;7.064;2022-09-24T08:15:22;14.50;99.90
7331;DHT22;3706;49.198;7.064;2022-09-24T08:17:49;14.60;99.90
7331;DHT22;3706;49.198;7.064;2022-09-24T08:20:16;14.70;99.90
7331;DHT22;3706;49.198;7.064;2022-09-24T08:22:43;14.90;99.90
7331;DHT22;3706;49.198;7.064;2022-09-24T08:25:10;15.10;99.90
7331;DHT22;3706;49.198;7.064;2022-09-24T08:27:37;15.30;99.90
7331;DHT22;3706;49.198;7.064;2022-09-24T08:30:07;15.60;99.90
7331;DHT22;3706;49.198;7.064;2022-09-24T08:32:34;15.90;99.90
7331;DHT22;3706;49.198;7.064;2022-09-24T08:35:00;16.30;99.90
7331;DHT22;3706;49.198;7.064;2022-09-24T08:37:28;16.60;99.90
7331;DHT22;3706;49.198;7.064;2022-09-24T08:39:56;17.00;99.90
7331;DHT22;3706;49.198;7.064;2022-09-24T08:42:34;17.30;99.90
7331;DHT22;3706;49.198;7.064;2022-09-24T08:45:07;17.50;99.90
7331;DHT22;3706;49.198;7.064;2022-09-24T08:47:52;17.60;99.90
7331;DHT22;3706;49.198;7.064;2022-09-24T08:50:23;17.70;99.90
7331;DHT22;3706;49.198;7.064;2022-09-24T08:53:00;17.80;99.90
7331;DHT22;3706;49.198;7.064;2022-09-24T08:55:33;18.00;99.90
7331;DHT22;3706;49.198;7.064;2022-09-24T08:58:14;18.50;99.90
7331;DHT22;3706;49.198;7.064;2022-09-24T09:00:50;19.20;99.90
7331;DHT22;3706;49.198;7.064;2022-09-24T09:03:25;19.90;99.90
7331;DHT22;3706;49.198;7.064;2022-09-24T09:05:58;20.10;99.90
7331;DHT22;3706;49.198;7.064;2022-09-24T09:08:34;19.90;99.90
7331;DHT22;3706;49.198;7.064;2022-09-24T09:11:03;19.40;99.90
7331;DHT22;3706;49.198;7.064;2022-09-24T09:13:37;19.10;99.90
7331;DHT22;3706;49.198;7.064;2022-09-24T09:16:17;18.80;99.90
7331;DHT22;3706;49.198;7.064;2022-09-24T09:18:48;18.70;99.90
7331;DHT22;3706;49.198;7.064;2022-09-24T09:21:21;18.60;99.90
7331;DHT22;3706;49.198;7.064;2022-09-24T09:23:52;18.60;99.90
7331;DHT22;3706;49.198;7.064;2022-09-24T09:26:22;18.60;99.90
7331;DHT22;3706;49.198;7.064;2022-09-24T09:28:50;18.70;99.90
7331;DHT22;3706;49.198;7.064;2022-09-24T09:31:27;18.80;99.90
7331;DHT22;3706;49.198;7.064;2022-09-24T09:34:18;18.90;99.90
7331;DHT22;3706;49.198;7.064;2022-09-24T09:37:05;19.00;99.90
7331;DHT22;3706;49.198;7.064;2022-09-24T09:39:41;19.00;99.90
7331;DHT22;3706;49.198;7.064;2022-09-24T09:42:22;19.10;99.90
7331;DHT22;3706;49.198;7.064;2022-09-24T09:44:51;19.10;99.90
7331;DHT22;3706;49.198;7.064;2022-09-24T09:47:25;19.20;99.90
7331;DHT22;3706;49.198;7.064;2022-09-24T09:49:56;19.30;99.90
7331;DHT22;3706;49.198;7.064;2022-09-24T09:52:30;19.30;99.90
7331;DHT22;3706;49.198;7.064;2022-09-24T09:54:59;19.20;99.90
7331;DHT22;3706;49.198;7.064;2022-09-24T09:57:30;19.20;99.90
7331;DHT22;3706;49.198;7.064;2022-09-24T10:00:00;19.10;99.90
7331;DHT22;3706;49.198;7.064;2022-09-24T10:02:31;19.10;99.90
7331;DHT22;3706;49.198;7.064;2022-09-24T10:05:01;19.10;99.90
7331;DHT22;3706;49.198;7.064;2022-09-24T10:07:28;19.10;99.90
7331;DHT22;3706;49.198;7.064;2022-09-24T10:10:02;19.10;99.90
7331;DHT22;3706;49.198;7.064;2022-09-24T10:12:29;19.10;99.90
7331;DHT22;3706;49.198;7.064;2022-09-24T10:14:58;19.10;99.90
7331;DHT22;3706;49.198;7.064;2022-09-24T10:17:32;19.10;99.90
7331;DHT22;3706;49.198;7.064;2022-09-24T10:20:02;19.10;99.90
7331;DHT22;3706;49.198;7.064;2022-09-24T10:22:34;19.30;99.90
7331;DHT22;3706;49.198;7.064;2022-09-24T10:25:03;19.40;99.90
7331;DHT22;3706;49.198;7.064;2022-09-24T10:27:33;19.50;99.90
7331;DHT22;3706;49.198;7.064;2022-09-24T10:30:02;19.60;99.90
7331;DHT22;3706;49.198;7.064;2022-09-24T10:32:56;19.70;99.90
7331;DHT22;3706;49.198;7.064;2022-09-24T10:35:27;19.80;99.90
7331;DHT22;3706;49.198;7.064;2022-09-24T10:37:55;19.90;99.90
7331;DHT22;3706;49.198;7.064;2022-09-24T10:40:24;20.00;99.90
7331;DHT22;3706;49.198;7.064;2022-09-24T10:42:58;20.10;99.90
7331;DHT22;3706;49.198;7.064;2022-09-24T10:45:42;20.20;99.90
7331;DHT22;3706;49.198;7.064;2022-09-24T10:48:20;20.40;99.90
7331;DHT22;3706;49.198;7.064;2022-09-24T10:50:56;20.70;99.90
7331;DHT22;3706;49.198;7.064;2022-09-24T10:53:36;21.20;99.90
7331;DHT22;3706;49.198;7.064;2022-09-24T10:56:12;21.90;99.90
7331;DHT22;3706;49.198;7.064;2022-09-24T10:59:09;22.40;99.90
7331;DHT22;3706;49.198;7.064;2022-09-24T11:01:44;22.90;99.00
7331;DHT22;3706;49.198;7.064;2022-09-24T11:07:41;23.30;96.10
7331;DHT22;3706;49.198;7.064;2022-09-24T11:10:30;23.40;94.40
7331;DHT22;3706;49.198;7.064;2022-09-24T11:13:05;23.90;94.20
7331;DHT22;3706;49.198;7.064;2022-09-24T11:15:55;24.50;92.80
7331;DHT22;3706;49.198;7.064;2022-09-24T11:18:32;24.90;90.60
7331;DHT22;3706;49.198;7.064;2022-09-24T11:21:13;25.50;88.80
7331;DHT22;3706;49.198;7.064;2022-09-24T11:24:03;25.80;84.50
7331;DHT22;3706;49.198;7.064;2022-09-24T11:26:44;25.90;82.20
7331;DHT22;3706;49.198;7.064;2022-09-24T11:29:25;25.80;78.80
7331;DHT22;3706;49.198;7.064;2022-09-24T11:32:02;25.40;77.60
7331;DHT22;3706;49.198;7.064;2022-09-24T11:34:51;25.00;77.60
7331;DHT22;3706;49.198;7.064;2022-09-24T11:37:33;24.60;77.80
7331;DHT22;3706;49.198;7.064;2022-09-24T11:40:15;24.40;77.90
7331;DHT22;3706;49.198;7.064;2022-09-24T11:42:53;24.40;78.40
7331;DHT22;3706;49.198;7.064;2022-09-24T11:45:37;24.70;77.90
7331;DHT22;3706;49.198;7.064;2022-09-24T11:48:25;25.00;76.60
7331;DHT22;3706;49.198;7.064;2022-09-24T11:51:01;25.30;73.70
7331;DHT22;3706;49.198;7.064;2022-09-24T11:53:37;25.10;72.40
7331;DHT22;3706;49.198;7.064;2022-09-24T11:56:10;24.60;73.90
7331;DHT22;3706;49.198;7.064;2022-09-24T11:58:42;24.30;73.50
7331;DHT22;3706;49.198;7.064;2022-09-24T12:01:14;24.00;73.70
7331;DHT22;3706;49.198;7.064;2022-09-24T12:03:46;23.80;74.60
7331;DHT22;3706;49.198;7.064;2022-09-24T12:06:18;23.80;74.60
7331;DHT22;3706;49.198;7.064;2022-09-24T12:08:52;23.80;74.10
7331;DHT22;3706;49.198;7.064;2022-09-24T12:11:24;23.40;74.80
7331;DHT22;3706;49.198;7.064;2022-09-24T12:13:59;23.00;75.60
7331;DHT22;3706;49.198;7.064;2022-09-24T12:16:31;22.50;76.10
7331;DHT22;3706;49.198;7.064;2022-09-24T12:19:04;22.10;77.50
7331;DHT22;3706;49.198;7.064;2022-09-24T12:21:37;21.80;78.70
7331;DHT22;3706;49.198;7.064;2022-09-24T12:24:11;21.60;79.30
7331;DHT22;3706;49.198;7.064;2022-09-24T12:26:42;21.40;80.30
7331;DHT22;3706;49.198;7.064;2022-09-24T12:29:26;21.50;81.20
7331;DHT22;3706;49.198;7.064;2022-09-24T12:32:18;21.50;82.00
7331;DHT22;3706;49.198;7.064;2022-09-24T12:35:10;21.50;81.70
7331;DHT22;3706;49.198;7.064;2022-09-24T12:37:39;21.60;80.70
7331;DHT22;3706;49.198;7.064;2022-09-24T12:40:20;21.70;79.60
7331;DHT22;3706;49.198;7.064;2022-09-24T12:42:53;22.00;78.60
7331;DHT22;3706;49.198;7.064;2022-09-24T12:45:23;22.10;77.50
7331;DHT22;3706;49.198;7.064;2022-09-24T12:47:53;22.10;77.50
7331;DHT22;3706;49.198;7.064;2022-09-24T12:50:23;22.30;77.60
7331;DHT22;3706;49.198;7.064;2022-09-24T12:52:52;22.50;77.00
7331;DHT22;3706;49.198;7.064;2022-09-24T12:55:23;22.70;75.70
7331;DHT22;3706;49.198;7.064;2022-09-24T12:57:53;22.80;75.40
7331;DHT22;3706;49.198;7.064;2022-09-24T13:00:36;23.00;74.60
7331;DHT22;3706;49.198;7.064;2022-09-24T13:03:05;22.70;75.00
7331;DHT22;3706;49.198;7.064;2022-09-24T13:05:33;22.40;75.50
7331;DHT22;3706;49.198;7.064;2022-09-24T13:08:23;22.30;76.30
7331;DHT22;3706;49.198;7.064;2022-09-24T13:10:56;22.10;75.80
7331;DHT22;3706;49.198;7.064;2022-09-24T13:13:26;22.10;76.50
7331;DHT22;3706;49.198;7.064;2022-09-24T13:15:59;22.00;76.50
7331;DHT22;3706;49.198;7.064;2022-09-24T13:18:27;21.80;76.00
7331;DHT22;3706;49.198;7.064;2022-09-24T13:20:58;21.70;75.80
7331;DHT22;3706;49.198;7.064;2022-09-24T13:23:32;21.60;76.60
7331;DHT22;3706;49.198;7.064;2022-09-24T13:26:13;21.40;77.40
7331;DHT22;3706;49.198;7.064;2022-09-24T13:28:50;21.20;78.10
7331;DHT22;3706;49.198;7.064;2022-09-24T13:31:26;21.10;78.70
7331;DHT22;3706;49.198;7.064;2022-09-24T13:33:58;21.10;78.70
7331;DHT22;3706;49.198;7.064;2022-09-24T13:36:32;21.20;78.90
7331;DHT22;3706;49.198;7.064;2022-09-24T13:39:04;21.20;78.80
7331;DHT22;3706;49.198;7.064;2022-09-24T13:41:41;21.20;79.10
7331;DHT22;3706;49.198;7.064;2022-09-24T13:44:15;21.20;79.50
7331;DHT22;3706;49.198;7.064;2022-09-24T13:46:46;21.20;79.50
7331;DHT22;3706;49.198;7.064;2022-09-24T13:49:17;21.30;79.80
7331;DHT22;3706;49.198;7.064;2022-09-24T13:51:54;21.40;80.20
7331;DHT22;3706;49.198;7.064;2022-09-24T13:54:24;21.40;80.60
7331;DHT22;3706;49.198;7.064;2022-09-24T13:56:58;21.40;81.30
7331;DHT22;3706;49.198;7.064;2022-09-24T13:59:25;21.20;81.70
7331;DHT22;3706;49.198;7.064;2022-09-24T14:01:53;21.00;82.50
7331;DHT22;3706;49.198;7.064;2022-09-24T14:04:20;20.90;82.80
7331;DHT22;3706;49.198;7.064;2022-09-24T14:06:49;20.60;83.70
7331;DHT22;3706;49.198;7.064;2022-09-24T14:09:25;20.50;84.60
7331;DHT22;3706;49.198;7.064;2022-09-24T14:11:54;20.40;84.60
7331;DHT22;3706;49.198;7.064;2022-09-24T14:14:26;20.30;84.20
7331;DHT22;3706;49.198;7.064;2022-09-24T14:16:53;20.10;84.20
7331;DHT22;3706;49.198;7.064;2022-09-24T14:19:30;19.90;84.60
7331;DHT22;3706;49.198;7.064;2022-09-24T14:22:00;19.70;84.60
7331;DHT22;3706;49.198;7.064;2022-09-24T14:24:30;19.50;85.00
7331;DHT22;3706;49.198;7.064;2022-09-24T14:27:00;19.30;86.30
7331;DHT22;3706;49.198;7.064;2022-09-24T14:29:35;19.30;87.40
7331;DHT22;3706;49.198;7.064;2022-09-24T14:32:03;19.20;87.40
7331;DHT22;3706;49.198;7.064;2022-09-24T14:34:35;19.20;86.90
7331;DHT22;3706;49.198;7.064;2022-09-24T14:37:09;19.20;86.70
7331;DHT22;3706;49.198;7.064;2022-09-24T14:39:40;19.10;87.10
7331;DHT22;3706;49.198;7.064;2022-09-24T14:42:09;19.00;87.70
7331;DHT22;3706;49.198;7.064;2022-09-24T14:44:39;19.00;88.10
7331;DHT22;3706;49.198;7.064;2022-09-24T14:47:23;18.90;87.50
7331;DHT22;3706;49.198;7.064;2022-09-24T14:49:50;18.80;87.90
7331;DHT22;3706;49.198;7.064;2022-09-24T14:52:26;18.70;88.20
7331;DHT22;3706;49.198;7.064;2022-09-24T14:55:00;18.60;88.70
7331;DHT22;3706;49.198;7.064;2022-09-24T14:57:35;18.50;89.20
7331;DHT22;3706;49.198;7.064;2022-09-24T15:00:18;18.40;89.90
7331;DHT22;3706;49.198;7.064;2022-09-24T15:02:48;18.30;90.60
7331;DHT22;3706;49.198;7.064;2022-09-24T15:05:16;18.20;91.30
7331;DHT22;3706;49.198;7.064;2022-09-24T15:07:48;18.10;91.60
7331;DHT22;3706;49.198;7.064;2022-09-24T15:10:20;17.90;91.90
7331;DHT22;3706;49.198;7.064;2022-09-24T15:12:49;17.80;92.30
7331;DHT22;3706;49.198;7.064;2022-09-24T15:15:28;17.60;92.60
7331;DHT22;3706;49.198;7.064;2022-09-24T15:17:56;17.50;93.00
7331;DHT22;3706;49.198;7.064;2022-09-24T15:20:24;17.30;93.40
7331;DHT22;3706;49.198;7.064;2022-09-24T15:22:51;17.10;93.70
7331;DHT22;3706;49.198;7.064;2022-09-24T15:25:17;16.90;94.10
7331;DHT22;3706;49.198;7.064;2022-09-24T15:27:44;16.70;94.50
7331;DHT22;3706;49.198;7.064;2022-09-24T15:30:19;16.60;94.90
7331;DHT22;3706;49.198;7.064;2022-09-24T15:32:48;16.40;95.50
7331;DHT22;3706;49.198;7.064;2022-09-24T15:35:16;16.30;96.20
7331;DHT22;3706;49.198;7.064;2022-09-24T15:37:43;16.20;96.80
7331;DHT22;3706;49.198;7.064;2022-09-24T15:40:18;16.10;97.40
7331;DHT22;3706;49.198;7.064;2022-09-24T15:42:50;16.00;98.20
7331;DHT22;3706;49.198;7.064;2022-09-24T15:45:18;15.80;99.20
7331;DHT22;3706;49.198;7.064;2022-09-24T15:47:49;15.70;99.90
7331;DHT22;3706;49.198;7.064;2022-09-24T15:50:16;15.50;99.90
7331;DHT22;3706;49.198;7.064;2022-09-24T15:52:46;15.30;99.90
7331;DHT22;3706;49.198;7.064;2022-09-24T15:55:16;15.20;99.90
7331;DHT22;3706;49.198;7.064;2022-09-24T15:57:44;15.10;99.90
7331;DHT22;3706;49.198;7.064;2022-09-24T16:00:13;15.00;99.90
7331;DHT22;3706;49.198;7.064;2022-09-24T16:02:43;14.90;99.90
7331;DHT22;3706;49.198;7.064;2022-09-24T16:05:14;14.80;99.90
7331;DHT22;3706;49.198;7.064;2022-09-24T16:07:41;14.80;99.90
7331;DHT22;3706;49.198;7.064;2022-09-24T16:10:09;14.70;99.90
7331;DHT22;3706;49.198;7.064;2022-09-24T16:12:36;14.60;99.90
7331;DHT22;3706;49.198;7.064;2022-09-24T16:15:04;14.50;99.90
7331;DHT22;3706;49.198;7.064;2022-09-24T16:17:31;14.40;99.90
7331;DHT22;3706;49.198;7.064;2022-09-24T16:20:01;14.30;99.90
7331;DHT22;3706;49.198;7.064;2022-09-24T16:22:30;14.20;99.90
7331;DHT22;3706;49.198;7.064;2022-09-24T16:24:56;14.10;99.90
7331;DHT22;3706;49.198;7.064;2022-09-24T16:27:23;14.00;99.90
7331;DHT22;3706;49.198;7.064;2022-09-24T16:29:50;14.00;99.90
7331;DHT22;3706;49.198;7.064;2022-09-24T16:32:17;13.90;99.90
7331;DHT22;3706;49.198;7.064;2022-09-24T16:34:45;13.80;99.90